sensor_id;sensor_type;location;lat;lon;timestamp;P1;durP1;ratioP1;P2;durP2;ratioP2
68523;SDS011;55524;51.380;13.372;2023-02-18T00:01:16;0.70;;;0.70;;
68523;SDS011;55524;51.380;13.372;2023-02-18T00:03:44;3.38;;;0.60;;
68523;SDS011;55524;51.380;13.372;2023-02-18T00:06:15;2.28;;;0.60;;
68523;SDS011;55524;51.380;13.372;2023-02-18T00:08:43;3.33;;;0.88;;
68523;SDS011;55524;51.380;13.372;2023-02-18T00:11:10;3.55;;;0.77;;
68523;SDS011;55524;51.380;13.372;2023-02-18T00:13:37;1.88;;;0.68;;
68523;SDS011;55524;51.380;13.372;2023-02-18T00:16:06;4.03;;;0.80;;
68523;SDS011;55524;51.380;13.372;2023-02-18T00:18:33;3.33;;;0.70;;
68523;SDS011;55524;51.380;13.372;2023-02-18T00:21:01;3.55;;;0.70;;
68523;SDS011;55524;51.380;13.372;2023-02-18T00:23:29;5.22;;;0.90;;
68523;SDS011;55524;51.380;13.372;2023-02-18T00:25:59;0.70;;;0.65;;
68523;SDS011;55524;51.380;13.372;2023-02-18T00:28:30;2.60;;;0.70;;
68523;SDS011;55524;51.380;13.372;2023-02-18T00:30:56;3.20;;;0.65;;
68523;SDS011;55524;51.380;13.372;2023-02-18T00:33:23;3.95;;;0.80;;
68523;SDS011;55524;51.380;13.372;2023-02-18T00:35:49;2.47;;;0.55;;
68523;SDS011;55524;51.380;13.372;2023-02-18T00:38:15;0.98;;;0.45;;
68523;SDS011;55524;51.380;13.372;2023-02-18T00:40:42;3.30;;;0.60;;
68523;SDS011;55524;51.380;13.372;2023-02-18T00:43:08;2.70;;;0.70;;
68523;SDS011;55524;51.380;13.372;2023-02-18T00:45:35;3.58;;;0.77;;
68523;SDS011;55524;51.380;13.372;2023-02-18T00:48:01;3.15;;;0.70;;
68523;SDS011;55524;51.380;13.372;2023-02-18T00:50:27;3.40;;;0.80;;
68523;SDS011;55524;51.380;13.372;2023-02-18T00:52:54;2.10;;;0.50;;
68523;SDS011;55524;51.380;13.372;2023-02-18T00:55:20;2.55;;;0.80;;
68523;SDS011;55524;51.380;13.372;2023-02-18T00:57:46;3.13;;;0.60;;
68523;SDS011;55524;51.380;13.372;2023-02-18T01:00:12;2.33;;;0.70;;
68523;SDS011;55524;51.380;13.372;2023-02-18T01:02:39;1.63;;;0.77;;
68523;SDS011;55524;51.380;13.372;2023-02-18T01:05:05;2.10;;;0.50;;
68523;SDS011;55524;51.380;13.372;2023-02-18T01:07:31;1.52;;;0.55;;
68523;SDS011;55524;51.380;13.372;2023-02-18T01:09:58;1.85;;;0.70;;
68523;SDS011;55524;51.380;13.372;2023-02-18T01:12:24;3.17;;;0.80;;
68523;SDS011;55524;51.380;13.372;2023-02-18T01:14:50;2.80;;;0.82;;
68523;SDS011;55524;51.380;13.372;2023-02-18T01:17:17;1.20;;;0.60;;
68523;SDS011;55524;51.380;13.372;2023-02-18T01:19:43;2.03;;;0.70;;
68523;SDS011;55524;51.380;13.372;2023-02-18T01:22:09;2.05;;;0.98;;
68523;SDS011;55524;51.380;13.372;2023-02-18T01:24:35;3.40;;;0.70;;
68523;SDS011;55524;51.380;13.372;2023-02-18T01:27:02;2.83;;;0.60;;
68523;SDS011;55524;51.380;13.372;2023-02-18T01:29:29;3.05;;;0.65;;
68523;SDS011;55524;51.380;13.372;2023-02-18T01:31:55;1.58;;;0.70;;
68523;SDS011;55524;51.380;13.372;2023-02-18T01:34:21;3.45;;;0.60;;
68523;SDS011;55524;51.380;13.372;2023-02-18T01:36:47;4.00;;;1.58;;
68523;SDS011;55524;51.380;13.372;2023-02-18T01:39:14;3.63;;;0.70;;
68523;SDS011;55524;51.380;13.372;2023-02-18T01:41:40;1.10;;;0.60;;
68523;SDS011;55524;51.380;13.372;2023-02-18T01:44:17;0.90;;;0.40;;
68523;SDS011;55524;51.380;13.372;2023-02-18T01:46:46;3.78;;;0.70;;
68523;SDS011;55524;51.380;13.372;2023-02-18T01:49:15;2.10;;;0.70;;
68523;SDS011;55524;51.380;13.372;2023-02-18T01:51:59;1.40;;;0.65;;
68523;SDS011;55524;51.380;13.372;2023-02-18T01:54:30;2.80;;;0.70;;
68523;SDS011;55524;51.380;13.372;2023-02-18T01:59:35;1.75;;;0.80;;
68523;SDS011;55524;51.380;13.372;2023-02-18T02:02:12;2.40;;;0.55;;
68523;SDS011;55524;51.380;13.372;2023-02-18T02:04:41;3.92;;;0.70;;
68523;SDS011;55524;51.380;13.372;2023-02-18T02:07:08;1.20;;;0.60;;
68523;SDS011;55524;51.380;13.372;2023-02-18T02:09:35;2.33;;;0.77;;
68523;SDS011;55524;51.380;13.372;2023-02-18T02:12:10;1.10;;;0.60;;
68523;SDS011;55524;51.380;13.372;2023-02-18T02:35:18;0.50;;;0.50;;
68523;SDS011;55524;51.380;13.372;2023-02-18T02:48:22;3.13;;;0.80;;
68523;SDS011;55524;51.380;13.372;2023-02-18T02:53:32;3.00;;;0.63;;
68523;SDS011;55524;51.380;13.372;2023-02-18T02:56:00;3.10;;;0.80;;
68523;SDS011;55524;51.380;13.372;2023-02-18T02:58:26;4.82;;;0.73;;
68523;SDS011;55524;51.380;13.372;2023-02-18T03:11:57;3.65;;;0.70;;
68523;SDS011;55524;51.380;13.372;2023-02-18T03:17:44;3.00;;;0.88;;
68523;SDS011;55524;51.380;13.372;2023-02-18T03:23:00;2.25;;;0.82;;
68523;SDS011;55524;51.380;13.372;2023-02-18T03:25:31;4.88;;;1.10;;
68523;SDS011;55524;51.380;13.372;2023-02-18T03:28:01;3.42;;;0.90;;
68523;SDS011;55524;51.380;13.372;2023-02-18T03:30:41;4.45;;;1.00;;
68523;SDS011;55524;51.380;13.372;2023-02-18T03:33:19;3.85;;;1.00;;
68523;SDS011;55524;51.380;13.372;2023-02-18T03:35:52;8.93;;;1.35;;
68523;SDS011;55524;51.380;13.372;2023-02-18T03:38:23;1.85;;;1.10;;
68523;SDS011;55524;51.380;13.372;2023-02-18T03:41:13;5.32;;;1.10;;
68523;SDS011;55524;51.380;13.372;2023-02-18T03:43:47;6.00;;;1.10;;
68523;SDS011;55524;51.380;13.372;2023-02-18T03:46:17;7.38;;;1.00;;
68523;SDS011;55524;51.380;13.372;2023-02-18T03:48:44;7.30;;;1.20;;
68523;SDS011;55524;51.380;13.372;2023-02-18T03:51:10;6.97;;;1.27;;
68523;SDS011;55524;51.380;13.372;2023-02-18T03:53:36;4.68;;;1.15;;
68523;SDS011;55524;51.380;13.372;2023-02-18T03:56:03;2.30;;;1.10;;
68523;SDS011;55524;51.380;13.372;2023-02-18T03:58:29;1.90;;;1.10;;
68523;SDS011;55524;51.380;13.372;2023-02-18T04:00:55;8.55;;;1.92;;
68523;SDS011;55524;51.380;13.372;2023-02-18T04:03:22;6.50;;;1.05;;
68523;SDS011;55524;51.380;13.372;2023-02-18T04:05:48;3.58;;;1.20;;
68523;SDS011;55524;51.380;13.372;2023-02-18T04:08:14;5.13;;;1.50;;
68523;SDS011;55524;51.380;13.372;2023-02-18T04:10:41;7.30;;;0.93;;
68523;SDS011;55524;51.380;13.372;2023-02-18T04:13:07;3.92;;;1.00;;
68523;SDS011;55524;51.380;13.372;2023-02-18T04:15:33;3.90;;;1.05;;
68523;SDS011;55524;51.380;13.372;2023-02-18T04:17:59;3.35;;;1.10;;
68523;SDS011;55524;51.380;13.372;2023-02-18T04:20:26;7.13;;;1.00;;
68523;SDS011;55524;51.380;13.372;2023-02-18T04:22:52;5.85;;;1.17;;
68523;SDS011;55524;51.380;13.372;2023-02-18T04:25:18;2.33;;;0.90;;
68523;SDS011;55524;51.380;13.372;2023-02-18T04:27:44;3.40;;;1.10;;
68523;SDS011;55524;51.380;13.372;2023-02-18T04:30:11;7.47;;;1.10;;
68523;SDS011;55524;51.380;13.372;2023-02-18T04:32:38;3.03;;;1.10;;
68523;SDS011;55524;51.380;13.372;2023-02-18T04:35:04;4.40;;;1.15;;
68523;SDS011;55524;51.380;13.372;2023-02-18T04:37:31;11.38;;;1.20;;
68523;SDS011;55524;51.380;13.372;2023-02-18T04:39:57;5.03;;;0.95;;
68523;SDS011;55524;51.380;13.372;2023-02-18T04:42:23;5.22;;;1.13;;
68523;SDS011;55524;51.380;13.372;2023-02-18T04:44:50;5.93;;;1.08;;
68523;SDS011;55524;51.380;13.372;2023-02-18T04:47:16;7.15;;;1.50;;
68523;SDS011;55524;51.380;13.372;2023-02-18T04:49:42;6.30;;;1.27;;
68523;SDS011;55524;51.380;13.372;2023-02-18T04:52:09;6.78;;;1.20;;
68523;SDS011;55524;51.380;13.372;2023-02-18T04:54:35;7.43;;;1.30;;
68523;SDS011;55524;51.380;13.372;2023-02-18T04:57:01;6.60;;;1.30;;
68523;SDS011;55524;51.380;13.372;2023-02-18T04:59:28;4.15;;;1.10;;
68523;SDS011;55524;51.380;13.372;2023-02-18T05:01:54;5.05;;;1.20;;
68523;SDS011;55524;51.380;13.372;2023-02-18T05:04:20;6.28;;;1.58;;
68523;SDS011;55524;51.380;13.372;2023-02-18T05:06:46;2.92;;;1.10;;
68523;SDS011;55524;51.380;13.372;2023-02-18T05:09:13;5.50;;;1.15;;
68523;SDS011;55524;51.380;13.372;2023-02-18T05:11:40;5.50;;;1.30;;
68523;SDS011;55524;51.380;13.372;2023-02-18T05:14:07;5.90;;;1.48;;
68523;SDS011;55524;51.380;13.372;2023-02-18T05:16:33;5.70;;;1.40;;
68523;SDS011;55524;51.380;13.372;2023-02-18T05:18:59;9.23;;;1.30;;
68523;SDS011;55524;51.380;13.372;2023-02-18T05:21:26;3.72;;;1.23;;
68523;SDS011;55524;51.380;13.372;2023-02-18T05:23:52;7.00;;;1.92;;
68523;SDS011;55524;51.380;13.372;2023-02-18T05:26:18;8.57;;;1.60;;
68523;SDS011;55524;51.380;13.372;2023-02-18T05:28:45;6.80;;;1.50;;
68523;SDS011;55524;51.380;13.372;2023-02-18T05:31:11;6.43;;;1.27;;
68523;SDS011;55524;51.380;13.372;2023-02-18T05:33:37;6.75;;;1.38;;
68523;SDS011;55524;51.380;13.372;2023-02-18T05:36:04;6.57;;;1.42;;
68523;SDS011;55524;51.380;13.372;2023-02-18T05:38:30;7.82;;;1.73;;
68523;SDS011;55524;51.380;13.372;2023-02-18T05:40:56;9.27;;;1.50;;
68523;SDS011;55524;51.380;13.372;2023-02-18T05:43:22;5.40;;;1.55;;
68523;SDS011;55524;51.380;13.372;2023-02-18T05:45:49;4.88;;;1.40;;
68523;SDS011;55524;51.380;13.372;2023-02-18T05:48:15;6.45;;;1.63;;
68523;SDS011;55524;51.380;13.372;2023-02-18T05:50:41;8.13;;;1.60;;
68523;SDS011;55524;51.380;13.372;2023-02-18T05:53:08;11.20;;;1.50;;
68523;SDS011;55524;51.380;13.372;2023-02-18T05:55:34;6.63;;;1.50;;
68523;SDS011;55524;51.380;13.372;2023-02-18T05:58:03;6.30;;;1.50;;
68523;SDS011;55524;51.380;13.372;2023-02-18T06:00:30;6.93;;;1.63;;
68523;SDS011;55524;51.380;13.372;2023-02-18T06:02:57;13.82;;;2.15;;
68523;SDS011;55524;51.380;13.372;2023-02-18T06:05:23;6.07;;;1.40;;
68523;SDS011;55524;51.380;13.372;2023-02-18T06:07:50;5.68;;;1.70;;
68523;SDS011;55524;51.380;13.372;2023-02-18T06:10:16;3.53;;;1.60;;
68523;SDS011;55524;51.380;13.372;2023-02-18T06:12:43;6.75;;;1.58;;
68523;SDS011;55524;51.380;13.372;2023-02-18T06:15:09;6.32;;;1.80;;
68523;SDS011;55524;51.380;13.372;2023-02-18T06:17:35;2.83;;;1.48;;
68523;SDS011;55524;51.380;13.372;2023-02-18T06:20:01;10.23;;;1.90;;
68523;SDS011;55524;51.380;13.372;2023-02-18T06:22:28;6.05;;;2.00;;
68523;SDS011;55524;51.380;13.372;2023-02-18T06:24:54;13.55;;;2.08;;
68523;SDS011;55524;51.380;13.372;2023-02-18T06:27:20;5.53;;;1.67;;
68523;SDS011;55524;51.380;13.372;2023-02-18T06:29:47;5.95;;;1.75;;
68523;SDS011;55524;51.380;13.372;2023-02-18T06:32:13;7.05;;;2.42;;
68523;SDS011;55524;51.380;13.372;2023-02-18T06:34:39;5.55;;;2.35;;
68523;SDS011;55524;51.380;13.372;2023-02-18T06:37:05;7.18;;;2.17;;
68523;SDS011;55524;51.380;13.372;2023-02-18T06:39:32;9.20;;;2.65;;
68523;SDS011;55524;51.380;13.372;2023-02-18T06:41:59;7.85;;;2.15;;
68523;SDS011;55524;51.380;13.372;2023-02-18T06:44:26;8.20;;;2.63;;
68523;SDS011;55524;51.380;13.372;2023-02-18T06:46:52;7.80;;;2.10;;
68523;SDS011;55524;51.380;13.372;2023-02-18T06:49:18;7.95;;;2.45;;
68523;SDS011;55524;51.380;13.372;2023-02-18T06:51:45;6.15;;;2.55;;
68523;SDS011;55524;51.380;13.372;2023-02-18T06:54:11;8.38;;;2.42;;
68523;SDS011;55524;51.380;13.372;2023-02-18T06:56:37;7.97;;;2.40;;
68523;SDS011;55524;51.380;13.372;2023-02-18T06:59:03;9.05;;;2.15;;
68523;SDS011;55524;51.380;13.372;2023-02-18T07:01:30;4.65;;;2.08;;
68523;SDS011;55524;51.380;13.372;2023-02-18T07:03:56;7.72;;;2.72;;
68523;SDS011;55524;51.380;13.372;2023-02-18T07:06:22;8.50;;;2.83;;
68523;SDS011;55524;51.380;13.372;2023-02-18T07:08:48;8.98;;;2.55;;
68523;SDS011;55524;51.380;13.372;2023-02-18T07:11:15;6.65;;;2.63;;
68523;SDS011;55524;51.380;13.372;2023-02-18T07:13:41;5.32;;;2.53;;
68523;SDS011;55524;51.380;13.372;2023-02-18T07:16:07;8.45;;;2.55;;
68523;SDS011;55524;51.380;13.372;2023-02-18T07:18:33;11.75;;;2.72;;
68523;SDS011;55524;51.380;13.372;2023-02-18T07:21:00;7.53;;;2.42;;
68523;SDS011;55524;51.380;13.372;2023-02-18T07:23:26;6.75;;;2.88;;
68523;SDS011;55524;51.380;13.372;2023-02-18T07:26:01;8.23;;;2.63;;
68523;SDS011;55524;51.380;13.372;2023-02-18T07:28:29;9.68;;;2.92;;
68523;SDS011;55524;51.380;13.372;2023-02-18T07:30:55;10.48;;;4.32;;
68523;SDS011;55524;51.380;13.372;2023-02-18T07:33:21;7.85;;;3.58;;
68523;SDS011;55524;51.380;13.372;2023-02-18T07:35:51;10.65;;;4.53;;
68523;SDS011;55524;51.380;13.372;2023-02-18T07:38:19;9.85;;;4.10;;
68523;SDS011;55524;51.380;13.372;2023-02-18T07:40:45;13.70;;;3.97;;
68523;SDS011;55524;51.380;13.372;2023-02-18T07:43:12;12.40;;;4.10;;
68523;SDS011;55524;51.380;13.372;2023-02-18T07:45:38;15.88;;;4.28;;
68523;SDS011;55524;51.380;13.372;2023-02-18T07:48:05;14.43;;;3.85;;
68523;SDS011;55524;51.380;13.372;2023-02-18T07:50:31;8.13;;;3.55;;
68523;SDS011;55524;51.380;13.372;2023-02-18T07:53:01;11.65;;;3.75;;
68523;SDS011;55524;51.380;13.372;2023-02-18T07:55:29;10.85;;;4.72;;
68523;SDS011;55524;51.380;13.372;2023-02-18T07:58:15;9.23;;;3.97;;
68523;SDS011;55524;51.380;13.372;2023-02-18T08:00:42;9.40;;;4.32;;
68523;SDS011;55524;51.380;13.372;2023-02-18T08:03:09;9.27;;;4.22;;
68523;SDS011;55524;51.380;13.372;2023-02-18T08:05:35;13.60;;;4.72;;
68523;SDS011;55524;51.380;13.372;2023-02-18T08:08:01;9.65;;;4.20;;
68523;SDS011;55524;51.380;13.372;2023-02-18T08:10:28;16.65;;;5.70;;
68523;SDS011;55524;51.380;13.372;2023-02-18T08:12:54;13.38;;;4.88;;
68523;SDS011;55524;51.380;13.372;2023-02-18T08:15:20;14.85;;;4.88;;
68523;SDS011;55524;51.380;13.372;2023-02-18T08:17:47;20.30;;;5.32;;
68523;SDS011;55524;51.380;13.372;2023-02-18T08:20:13;21.15;;;7.57;;
68523;SDS011;55524;51.380;13.372;2023-02-18T08:22:39;18.65;;;5.47;;
68523;SDS011;55524;51.380;13.372;2023-02-18T08:25:06;21.77;;;5.10;;
68523;SDS011;55524;51.380;13.372;2023-02-18T08:27:32;8.52;;;4.10;;
68523;SDS011;55524;51.380;13.372;2023-02-18T08:29:58;14.75;;;4.22;;
68523;SDS011;55524;51.380;13.372;2023-02-18T08:32:28;12.25;;;4.90;;
68523;SDS011;55524;51.380;13.372;2023-02-18T08:34:54;10.32;;;5.18;;
68523;SDS011;55524;51.380;13.372;2023-02-18T08:37:21;15.27;;;4.03;;
68523;SDS011;55524;51.380;13.372;2023-02-18T08:39:48;30.80;;;6.43;;
68523;SDS011;55524;51.380;13.372;2023-02-18T08:42:14;8.80;;;3.75;;
68523;SDS011;55524;51.380;13.372;2023-02-18T08:44:42;9.20;;;3.90;;
68523;SDS011;55524;51.380;13.372;2023-02-18T08:47:09;12.57;;;4.22;;
68523;SDS011;55524;51.380;13.372;2023-02-18T08:49:35;7.45;;;3.40;;
68523;SDS011;55524;51.380;13.372;2023-02-18T08:52:02;13.15;;;3.95;;
68523;SDS011;55524;51.380;13.372;2023-02-18T08:54:29;9.60;;;3.42;;
68523;SDS011;55524;51.380;13.372;2023-02-18T08:56:55;10.50;;;3.47;;
68523;SDS011;55524;51.380;13.372;2023-02-18T08:59:22;11.52;;;3.95;;
68523;SDS011;55524;51.380;13.372;2023-02-18T09:01:49;29.88;;;5.15;;
68523;SDS011;55524;51.380;13.372;2023-02-18T09:04:16;15.38;;;4.75;;
68523;SDS011;55524;51.380;13.372;2023-02-18T09:06:45;10.38;;;4.28;;
68523;SDS011;55524;51.380;13.372;2023-02-18T09:09:12;11.23;;;4.45;;
68523;SDS011;55524;51.380;13.372;2023-02-18T09:11:38;25.13;;;5.68;;
68523;SDS011;55524;51.380;13.372;2023-02-18T09:14:05;10.15;;;3.90;;
68523;SDS011;55524;51.380;13.372;2023-02-18T09:16:31;14.88;;;4.65;;
68523;SDS011;55524;51.380;13.372;2023-02-18T09:18:57;8.57;;;3.92;;
68523;SDS011;55524;51.380;13.372;2023-02-18T09:21:24;17.98;;;4.32;;
68523;SDS011;55524;51.380;13.372;2023-02-18T09:23:51;8.75;;;3.97;;
68523;SDS011;55524;51.380;13.372;2023-02-18T09:26:18;16.85;;;5.60;;
68523;SDS011;55524;51.380;13.372;2023-02-18T09:28:47;9.25;;;5.10;;
68523;SDS011;55524;51.380;13.372;2023-02-18T09:31:15;9.73;;;5.22;;
68523;SDS011;55524;51.380;13.372;2023-02-18T09:33:45;8.25;;;4.38;;
68523;SDS011;55524;51.380;13.372;2023-02-18T09:36:15;8.23;;;4.63;;
68523;SDS011;55524;51.380;13.372;2023-02-18T09:38:42;9.38;;;4.63;;
68523;SDS011;55524;51.380;13.372;2023-02-18T09:41:23;9.80;;;6.03;;
68523;SDS011;55524;51.380;13.372;2023-02-18T09:44:01;12.40;;;5.97;;
68523;SDS011;55524;51.380;13.372;2023-02-18T09:46:47;8.93;;;5.07;;
68523;SDS011;55524;51.380;13.372;2023-02-18T09:49:15;10.23;;;5.25;;
68523;SDS011;55524;51.380;13.372;2023-02-18T09:54:49;8.40;;;5.07;;
68523;SDS011;55524;51.380;13.372;2023-02-18T10:00:06;13.85;;;7.30;;
68523;SDS011;55524;51.380;13.372;2023-02-18T10:03:00;10.70;;;6.63;;
68523;SDS011;55524;51.380;13.372;2023-02-18T10:08:29;9.82;;;6.32;;
68523;SDS011;55524;51.380;13.372;2023-02-18T10:11:00;11.63;;;6.30;;
68523;SDS011;55524;51.380;13.372;2023-02-18T10:13:31;11.27;;;5.07;;
68523;SDS011;55524;51.380;13.372;2023-02-18T10:15:58;7.97;;;3.90;;
68523;SDS011;55524;51.380;13.372;2023-02-18T10:18:26;5.47;;;3.45;;
68523;SDS011;55524;51.380;13.372;2023-02-18T10:21:11;5.22;;;2.80;;
68523;SDS011;55524;51.380;13.372;2023-02-18T10:23:40;2.83;;;1.70;;
68523;SDS011;55524;51.380;13.372;2023-02-18T10:26:22;1.27;;;1.17;;
68523;SDS011;55524;51.380;13.372;2023-02-18T10:28:49;1.25;;;1.20;;
68523;SDS011;55524;51.380;13.372;2023-02-18T10:31:22;2.22;;;1.27;;
68523;SDS011;55524;51.380;13.372;2023-02-18T10:34:26;4.43;;;1.80;;
68523;SDS011;55524;51.380;13.372;2023-02-18T10:45:26;1.02;;;0.93;;
68523;SDS011;55524;51.380;13.372;2023-02-18T10:50:43;2.75;;;1.30;;
68523;SDS011;55524;51.380;13.372;2023-02-18T10:55:49;1.15;;;1.10;;
68523;SDS011;55524;51.380;13.372;2023-02-18T10:58:34;1.58;;;1.02;;
68523;SDS011;55524;51.380;13.372;2023-02-18T11:01:12;1.30;;;1.10;;
68523;SDS011;55524;51.380;13.372;2023-02-18T11:03:46;0.90;;;0.90;;
68523;SDS011;55524;51.380;13.372;2023-02-18T11:06:38;2.30;;;0.90;;
68523;SDS011;55524;51.380;13.372;2023-02-18T11:09:12;0.80;;;0.80;;
68523;SDS011;55524;51.380;13.372;2023-02-18T11:12:05;0.93;;;0.93;;
68523;SDS011;55524;51.380;13.372;2023-02-18T11:14:43;1.20;;;1.20;;
68523;SDS011;55524;51.380;13.372;2023-02-18T11:17:16;0.95;;;0.88;;
68523;SDS011;55524;51.380;13.372;2023-02-18T11:19:58;0.93;;;0.80;;
68523;SDS011;55524;51.380;13.372;2023-02-18T11:22:33;1.42;;;1.00;;
68523;SDS011;55524;51.380;13.372;2023-02-18T11:25:17;0.75;;;0.75;;
68523;SDS011;55524;51.380;13.372;2023-02-18T11:27:59;0.70;;;0.70;;
68523;SDS011;55524;51.380;13.372;2023-02-18T11:30:38;0.82;;;0.82;;
68523;SDS011;55524;51.380;13.372;2023-02-18T11:35:39;0.77;;;0.77;;
68523;SDS011;55524;51.380;13.372;2023-02-18T11:38:24;2.25;;;0.85;;
68523;SDS011;55524;51.380;13.372;2023-02-18T11:41:11;0.93;;;0.93;;
68523;SDS011;55524;51.380;13.372;2023-02-18T11:43:41;0.80;;;0.80;;
68523;SDS011;55524;51.380;13.372;2023-02-18T11:46:22;0.73;;;0.60;;
68523;SDS011;55524;51.380;13.372;2023-02-18T11:48:50;0.50;;;0.50;;
68523;SDS011;55524;51.380;13.372;2023-02-18T11:54:24;0.40;;;0.40;;
68523;SDS011;55524;51.380;13.372;2023-02-18T11:56:55;0.98;;;0.55;;
68523;SDS011;55524;51.380;13.372;2023-02-18T11:59:34;0.60;;;0.60;;
68523;SDS011;55524;51.380;13.372;2023-02-18T12:02:15;1.08;;;1.08;;
68523;SDS011;55524;51.380;13.372;2023-02-18T12:05:10;0.45;;;0.45;;
68523;SDS011;55524;51.380;13.372;2023-02-18T12:10:30;0.40;;;0.40;;
68523;SDS011;55524;51.380;13.372;2023-02-18T12:13:52;0.45;;;0.45;;
68523;SDS011;55524;51.380;13.372;2023-02-18T12:24:05;0.40;;;0.40;;
68523;SDS011;55524;51.380;13.372;2023-02-18T12:29:51;2.85;;;0.50;;
68523;SDS011;55524;51.380;13.372;2023-02-18T12:38:11;0.40;;;0.40;;
68523;SDS011;55524;51.380;13.372;2023-02-18T12:40:51;0.50;;;0.50;;
68523;SDS011;55524;51.380;13.372;2023-02-18T12:43:26;0.40;;;0.40;;
68523;SDS011;55524;51.380;13.372;2023-02-18T12:51:55;0.50;;;0.50;;
68523;SDS011;55524;51.380;13.372;2023-02-18T12:54:29;0.30;;;0.30;;
68523;SDS011;55524;51.380;13.372;2023-02-18T13:05:43;0.50;;;0.50;;
68523;SDS011;55524;51.380;13.372;2023-02-18T13:16:37;0.90;;;0.50;;
68523;SDS011;55524;51.380;13.372;2023-02-18T13:19:17;0.40;;;0.40;;
68523;SDS011;55524;51.380;13.372;2023-02-18T13:21:51;0.40;;;0.40;;
68523;SDS011;55524;51.380;13.372;2023-02-18T13:27:23;0.93;;;0.50;;
68523;SDS011;55524;51.380;13.372;2023-02-18T13:40:56;1.20;;;0.40;;
68523;SDS011;55524;51.380;13.372;2023-02-18T13:48:45;0.60;;;0.60;;
68523;SDS011;55524;51.380;13.372;2023-02-18T13:51:14;0.40;;;0.40;;
68523;SDS011;55524;51.380;13.372;2023-02-18T13:54:04;0.57;;;0.57;;
68523;SDS011;55524;51.380;13.372;2023-02-18T13:56:33;0.50;;;0.50;;
68523;SDS011;55524;51.380;13.372;2023-02-18T13:59:09;2.45;;;0.57;;
68523;SDS011;55524;51.380;13.372;2023-02-18T14:01:45;2.45;;;0.50;;
68523;SDS011;55524;51.380;13.372;2023-02-18T14:09:54;0.55;;;0.55;;
68523;SDS011;55524;51.380;13.372;2023-02-18T14:23:11;1.00;;;0.57;;
68523;SDS011;55524;51.380;13.372;2023-02-18T14:31:20;0.98;;;0.63;;
68523;SDS011;55524;51.380;13.372;2023-02-18T14:50:12;0.50;;;0.50;;
68523;SDS011;55524;51.380;13.372;2023-02-18T14:52:43;1.30;;;0.60;;
68523;SDS011;55524;51.380;13.372;2023-02-18T14:55:22;0.85;;;0.82;;
68523;SDS011;55524;51.380;13.372;2023-02-18T14:57:51;0.70;;;0.63;;
68523;SDS011;55524;51.380;13.372;2023-02-18T15:00:23;0.80;;;0.52;;
68523;SDS011;55524;51.380;13.372;2023-02-18T15:02:56;1.27;;;0.70;;
68523;SDS011;55524;51.380;13.372;2023-02-18T15:05:25;4.47;;;0.80;;
68523;SDS011;55524;51.380;13.372;2023-02-18T15:08:00;2.03;;;0.88;;
68523;SDS011;55524;51.380;13.372;2023-02-18T15:13:07;2.40;;;0.68;;
68523;SDS011;55524;51.380;13.372;2023-02-18T15:15:54;1.10;;;0.80;;
68523;SDS011;55524;51.380;13.372;2023-02-18T15:21:00;1.40;;;0.70;;
68523;SDS011;55524;51.380;13.372;2023-02-18T15:23:29;1.05;;;0.60;;
68523;SDS011;55524;51.380;13.372;2023-02-18T15:25:58;1.00;;;0.50;;
68523;SDS011;55524;51.380;13.372;2023-02-18T15:30:54;1.23;;;0.60;;
68523;SDS011;55524;51.380;13.372;2023-02-18T15:33:25;1.52;;;0.65;;
68523;SDS011;55524;51.380;13.372;2023-02-18T15:36:02;0.55;;;0.55;;
68523;SDS011;55524;51.380;13.372;2023-02-18T15:38:30;0.60;;;0.60;;
68523;SDS011;55524;51.380;13.372;2023-02-18T15:40:57;0.77;;;0.65;;
68523;SDS011;55524;51.380;13.372;2023-02-18T15:43:25;0.88;;;0.60;;
68523;SDS011;55524;51.380;13.372;2023-02-18T15:45:53;0.70;;;0.70;;
68523;SDS011;55524;51.380;13.372;2023-02-18T15:51:02;0.75;;;0.70;;
68523;SDS011;55524;51.380;13.372;2023-02-18T15:53:30;0.70;;;0.70;;
68523;SDS011;55524;51.380;13.372;2023-02-18T15:56:03;0.50;;;0.50;;
68523;SDS011;55524;51.380;13.372;2023-02-18T15:58:34;2.38;;;0.63;;
68523;SDS011;55524;51.380;13.372;2023-02-18T16:01:02;1.10;;;0.73;;
68523;SDS011;55524;51.380;13.372;2023-02-18T16:03:31;0.70;;;0.70;;
68523;SDS011;55524;51.380;13.372;2023-02-18T16:11:54;0.80;;;0.80;;
68523;SDS011;55524;51.380;13.372;2023-02-18T16:17:06;0.98;;;0.65;;
68523;SDS011;55524;51.380;13.372;2023-02-18T16:19:55;0.70;;;0.70;;
68523;SDS011;55524;51.380;13.372;2023-02-18T16:27:33;0.80;;;0.65;;
68523;SDS011;55524;51.380;13.372;2023-02-18T16:30:05;1.23;;;0.70;;
68523;SDS011;55524;51.380;13.372;2023-02-18T16:32:42;2.35;;;0.60;;
68523;SDS011;55524;51.380;13.372;2023-02-18T16:35:10;1.65;;;0.50;;
68523;SDS011;55524;51.380;13.372;2023-02-18T16:37:37;1.75;;;0.73;;
68523;SDS011;55524;51.380;13.372;2023-02-18T16:42:57;1.92;;;0.70;;
68523;SDS011;55524;51.380;13.372;2023-02-18T16:45:29;1.90;;;0.70;;
68523;SDS011;55524;51.380;13.372;2023-02-18T16:47:58;1.02;;;0.60;;
68523;SDS011;55524;51.380;13.372;2023-02-18T16:50:25;1.65;;;0.73;;
68523;SDS011;55524;51.380;13.372;2023-02-18T16:52:55;0.50;;;0.50;;
68523;SDS011;55524;51.380;13.372;2023-02-18T16:55:23;1.23;;;0.50;;
68523;SDS011;55524;51.380;13.372;2023-02-18T16:57:52;0.70;;;0.70;;
68523;SDS011;55524;51.380;13.372;2023-02-18T17:00:19;1.10;;;0.68;;
68523;SDS011;55524;51.380;13.372;2023-02-18T17:02:50;0.82;;;0.60;;
68523;SDS011;55524;51.380;13.372;2023-02-18T17:05:19;0.50;;;0.50;;
68523;SDS011;55524;51.380;13.372;2023-02-18T17:07:47;1.27;;;0.57;;
68523;SDS011;55524;51.380;13.372;2023-02-18T17:10:14;0.75;;;0.75;;
68523;SDS011;55524;51.380;13.372;2023-02-18T17:12:41;1.17;;;0.60;;
68523;SDS011;55524;51.380;13.372;2023-02-18T17:15:25;0.70;;;0.70;;
68523;SDS011;55524;51.380;13.372;2023-02-18T17:17:54;2.85;;;0.80;;
68523;SDS011;55524;51.380;13.372;2023-02-18T17:20:26;0.63;;;0.63;;
68523;SDS011;55524;51.380;13.372;2023-02-18T17:22:55;0.60;;;0.60;;
68523;SDS011;55524;51.380;13.372;2023-02-18T17:25:29;0.70;;;0.70;;
68523;SDS011;55524;51.380;13.372;2023-02-18T17:28:02;0.75;;;0.75;;
68523;SDS011;55524;51.380;13.372;2023-02-18T17:30:29;3.17;;;0.70;;
68523;SDS011;55524;51.380;13.372;2023-02-18T17:32:59;0.90;;;0.90;;
68523;SDS011;55524;51.380;13.372;2023-02-18T17:35:27;0.80;;;0.80;;
68523;SDS011;55524;51.380;13.372;2023-02-18T17:37:53;0.80;;;0.80;;
68523;SDS011;55524;51.380;13.372;2023-02-18T17:40:20;0.80;;;0.80;;
68523;SDS011;55524;51.380;13.372;2023-02-18T17:42:48;1.17;;;0.90;;
68523;SDS011;55524;51.380;13.372;2023-02-18T17:45:28;0.80;;;0.80;;
68523;SDS011;55524;51.380;13.372;2023-02-18T17:47:59;1.35;;;0.77;;
68523;SDS011;55524;51.380;13.372;2023-02-18T17:50:26;0.80;;;0.80;;
68523;SDS011;55524;51.380;13.372;2023-02-18T17:52:54;0.80;;;0.80;;
68523;SDS011;55524;51.380;13.372;2023-02-18T17:55:22;1.00;;;1.00;;
68523;SDS011;55524;51.380;13.372;2023-02-18T17:57:50;2.42;;;1.20;;
68523;SDS011;55524;51.380;13.372;2023-02-18T18:00:20;3.75;;;0.93;;
68523;SDS011;55524;51.380;13.372;2023-02-18T18:02:46;1.60;;;1.15;;
68523;SDS011;55524;51.380;13.372;2023-02-18T18:05:21;1.05;;;0.90;;
68523;SDS011;55524;51.380;13.372;2023-02-18T18:07:52;0.90;;;0.90;;
68523;SDS011;55524;51.380;13.372;2023-02-18T18:10:20;1.08;;;0.98;;
68523;SDS011;55524;51.380;13.372;2023-02-18T18:12:52;1.85;;;1.15;;
68523;SDS011;55524;51.380;13.372;2023-02-18T18:17:54;1.00;;;0.82;;
68523;SDS011;55524;51.380;13.372;2023-02-18T18:20:22;1.23;;;1.13;;